Time;durP1;ratioP1;P1;durP2;ratioP2;P2;SDS_P1;SDS_P2;PMS_P1;PMS_P2;Temp;Humidity;BMP_temperature;BMP_pressure;BME280_temperature;BME280_humidity;BME280_pressure;Samples;Min_cycle;Max_cycle;Signal;HPM_P1;HPM_P2
2024/03/06 00:00:13;;;;;;;6.68;4.80;;;1.90;99.90;;;;;;476894;249;27441;-71
2024/03/06 00:02:14;;;;;;;6.60;4.70;;;1.90;99.90;;;;;;468104;251;27461;-71
2024/03/06 00:04:15;;;;;;;5.10;4.47;;;1.90;99.90;;;;;;476948;249;27498;-71
2024/03/06 00:06:17;;;;;;;5.18;4.28;;;2.00;99.90;;;;;;468125;251;27841;-73
2024/03/06 00:08:18;;;;;;;4.50;3.90;;;1.90;99.90;;;;;;476943;249;27402;-71
2024/03/06 00:10:19;;;;;;;5.40;4.40;;;1.90;99.90;;;;;;468064;251;27465;-70
2024/03/06 00:12:20;;;;;;;6.03;4.75;;;1.90;99.90;;;;;;476954;249;27397;-71
2024/03/06 00:14:22;;;;;;;7.65;4.20;;;1.90;99.90;;;;;;468100;251;27934;-71
2024/03/06 00:16:23;;;;;;;5.05;4.37;;;2.00;99.90;;;;;;476998;249;27953;-72
2024/03/06 00:18:24;;;;;;;4.82;3.90;;;1.90;99.90;;;;;;468032;251;29095;-71
2024/03/06 00:20:25;;;;;;;5.65;4.25;;;1.90;99.90;;;;;;476946;249;27933;-71
2024/03/06 00:22:27;;;;;;;5.72;3.47;;;1.80;99.90;;;;;;468069;251;27415;-70
2024/03/06 00:24:28;;;;;;;5.50;4.28;;;1.70;99.90;;;;;;476992;249;27422;-70
2024/03/06 00:26:29;;;;;;;5.43;4.43;;;1.70;99.90;;;;;;468119;251;27581;-72
2024/03/06 00:28:30;;;;;;;6.37;4.57;;;1.60;99.90;;;;;;476941;249;27409;-71
2024/03/06 00:30:32;;;;;;;4.72;4.05;;;1.70;99.90;;;;;;468113;251;27472;-71
2024/03/06 00:32:33;;;;;;;5.78;4.87;;;1.70;99.90;;;;;;477000;249;27522;-71
2024/03/06 00:34:34;;;;;;;7.28;4.80;;;1.80;99.90;;;;;;468072;254;27462;-71
2024/03/06 00:36:35;;;;;;;5.07;4.30;;;1.80;99.90;;;;;;476828;249;27458;-71
2024/03/06 00:38:37;;;;;;;5.32;4.70;;;1.80;99.90;;;;;;468047;251;27577;-71
2024/03/06 00:40:38;;;;;;;6.97;5.00;;;1.90;99.90;;;;;;476962;249;27450;-71
2024/03/06 00:42:41;;;;;;;5.90;5.10;;;1.90;99.90;;;;;;468107;251;28045;-72
2024/03/06 00:44:41;;;;;;;8.15;5.12;;;1.90;99.90;;;;;;476891;249;27887;-71
2024/03/06 00:46:42;;;;;;;6.15;4.62;;;1.90;99.90;;;;;;468074;251;27960;-71
2024/03/06 00:48:43;;;;;;;6.00;4.80;;;2.00;99.90;;;;;;476939;249;27866;-71
2024/03/06 00:50:44;;;;;;;7.07;5.15;;;1.90;99.90;;;;;;468103;251;27554;-71
2024/03/06 00:52:46;;;;;;;6.03;4.65;;;1.90;99.90;;;;;;476972;249;27430;-72
2024/03/06 00:54:47;;;;;;;5.10;4.57;;;2.00;99.90;;;;;;468085;251;27413;-71
2024/03/06 00:56:48;;;;;;;5.95;4.43;;;2.10;99.90;;;;;;476985;249;27448;-71
2024/03/06 00:58:49;;;;;;;5.78;4.60;;;2.10;99.90;;;;;;467920;251;27513;-72
2024/03/06 01:00:50;;;;;;;8.00;6.20;;;2.20;99.90;;;;;;476984;249;27414;-71
2024/03/06 01:02:52;;;;;;;6.87;5.65;;;2.10;99.90;;;;;;468111;251;27473;-71
2024/03/06 01:04:53;;;;;;;5.22;4.70;;;2.20;99.90;;;;;;476953;249;27501;-70
2024/03/06 01:06:54;;;;;;;5.87;4.75;;;2.10;99.90;;;;;;468093;251;27462;-71
2024/03/06 01:08:56;;;;;;;6.07;5.03;;;2.00;99.90;;;;;;476950;249;27499;-72
2024/03/06 01:10:57;;;;;;;6.65;4.97;;;2.00;99.90;;;;;;468124;251;28027;-71
2024/03/06 01:12:58;;;;;;;6.97;4.90;;;2.00;99.90;;;;;;477009;249;28033;-71
2024/03/06 01:14:59;;;;;;;6.20;4.70;;;2.00;99.90;;;;;;468105;251;27861;-71
2024/03/06 01:17:00;;;;;;;6.70;5.32;;;1.90;99.90;;;;;;476973;249;27929;-71
2024/03/06 01:19:02;;;;;;;5.25;4.05;;;1.80;99.90;;;;;;468102;251;27462;-72
2024/03/06 01:21:03;;;;;;;6.85;4.82;;;1.90;99.90;;;;;;477009;249;27405;-71
2024/03/06 01:23:04;;;;;;;7.43;4.25;;;1.90;99.90;;;;;;468127;251;27470;-71
2024/03/06 01:25:07;;;;;;;5.35;4.60;;;2.00;99.90;;;;;;476997;249;27415;-70
2024/03/06 01:27:07;;;;;;;5.45;4.55;;;1.90;99.90;;;;;;468060;254;27442;-71
2024/03/06 01:29:08;;;;;;;7.65;4.60;;;1.80;99.90;;;;;;477006;249;27462;-72
2024/03/06 01:31:09;;;;;;;6.18;4.60;;;1.90;99.90;;;;;;468110;251;27438;-71
2024/03/06 01:33:10;;;;;;;14.93;4.87;;;1.90;99.90;;;;;;476997;249;27445;-71
2024/03/06 01:35:12;;;;;;;4.70;4.30;;;2.00;99.90;;;;;;468090;251;27502;-71
2024/03/06 01:37:13;;;;;;;5.60;4.53;;;2.10;99.90;;;;;;476973;249;27405;-71
2024/03/06 01:39:14;;;;;;;8.07;4.78;;;2.10;99.90;;;;;;468101;251;27972;-71
2024/03/06 01:41:15;;;;;;;5.20;4.70;;;2.10;99.90;;;;;;476973;249;27855;-71
2024/03/06 01:43:17;;;;;;;6.47;4.72;;;2.20;99.90;;;;;;468037;251;29158;-71
2024/03/06 01:45:19;;;;;;;7.80;4.60;;;2.10;99.90;;;;;;476946;249;28161;-71
2024/03/06 01:47:19;;;;;;;4.95;4.40;;;2.20;99.90;;;;;;468009;254;27434;-71
2024/03/06 01:49:20;;;;;;;5.47;4.50;;;2.20;99.90;;;;;;476969;249;27439;-71
2024/03/06 01:51:22;;;;;;;5.87;4.60;;;2.20;99.90;;;;;;468077;251;27493;-71
2024/03/06 01:53:24;;;;;;;4.90;4.28;;;2.10;99.90;;;;;;476928;249;27442;-71
2024/03/06 01:55:24;;;;;;;6.18;5.07;;;2.10;99.90;;;;;;468086;251;27817;-70
2024/03/06 01:57:26;;;;;;;7.55;5.28;;;2.20;99.90;;;;;;476949;249;27974;-71
2024/03/06 01:59:27;;;;;;;5.85;4.47;;;2.20;99.90;;;;;;468062;251;27489;-71
2024/03/06 02:01:28;;;;;;;7.20;5.07;;;2.00;99.90;;;;;;476940;249;27494;-71
2024/03/06 02:03:29;;;;;;;5.25;4.37;;;2.10;99.90;;;;;;468097;251;27433;-70
2024/03/06 02:05:31;;;;;;;5.78;4.55;;;2.00;99.90;;;;;;476991;249;27478;-71
2024/03/06 02:07:32;;;;;;;4.82;4.32;;;1.90;99.90;;;;;;468074;251;27438;-71
2024/03/06 02:09:33;;;;;;;5.22;4.72;;;1.90;99.90;;;;;;476953;249;27458;-71
2024/03/06 02:11:34;;;;;;;5.80;4.50;;;1.90;99.90;;;;;;468092;251;27469;-70
2024/03/06 02:13:36;;;;;;;5.68;4.35;;;1.80;99.90;;;;;;476975;249;27411;-71
2024/03/06 02:15:37;;;;;;;7.03;5.05;;;1.80;99.90;;;;;;468085;251;27488;-71
2024/03/06 02:17:38;;;;;;;4.90;4.37;;;1.70;99.90;;;;;;476911;249;27425;-71
2024/03/06 02:19:39;;;;;;;5.18;4.68;;;1.80;99.90;;;;;;468044;251;27935;-71
2024/03/06 02:21:41;;;;;;;7.50;5.12;;;1.80;99.90;;;;;;476989;249;28069;-71
2024/03/06 02:23:42;;;;;;;4.62;4.10;;;1.80;99.90;;;;;;468106;251;27944;-71
2024/03/06 02:25:43;;;;;;;8.25;5.65;;;1.80;99.90;;;;;;476801;249;28037;-71
2024/03/06 02:27:44;;;;;;;4.65;4.25;;;1.70;99.90;;;;;;468056;251;27456;-71
2024/03/06 02:29:46;;;;;;;7.03;4.90;;;1.70;99.90;;;;;;476940;249;27453;-71
2024/03/06 02:31:48;;;;;;;6.60;4.87;;;1.70;99.90;;;;;;468118;251;27486;-72
2024/03/06 02:33:48;;;;;;;7.60;5.43;;;1.70;99.90;;;;;;476938;249;27476;-71
2024/03/06 02:35:49;;;;;;;4.30;3.90;;;1.60;99.90;;;;;;468059;251;27487;-71
2024/03/06 02:37:51;;;;;;;9.43;4.80;;;1.60;99.90;;;;;;476892;249;27524;-71
2024/03/06 02:39:52;;;;;;;6.15;4.85;;;1.60;99.90;;;;;;468105;251;27449;-71
2024/03/06 02:41:53;;;;;;;6.00;4.47;;;1.60;99.90;;;;;;476974;249;27486;-71
2024/03/06 02:43:54;;;;;;;6.05;4.65;;;1.60;99.90;;;;;;468090;251;27553;-70
2024/03/06 02:45:56;;;;;;;6.80;4.68;;;1.50;99.90;;;;;;476952;249;27449;-70
2024/03/06 02:47:57;;;;;;;7.62;4.90;;;1.60;99.90;;;;;;468032;251;28815;-71
2024/03/06 02:49:58;;;;;;;7.75;5.12;;;1.60;99.90;;;;;;476985;249;27935;-70
2024/03/06 02:52:01;;;;;;;8.70;5.85;;;1.60;99.90;;;;;;468123;251;27948;-71
2024/03/06 02:54:01;;;;;;;7.45;4.85;;;1.60;99.90;;;;;;476784;249;27867;-71
2024/03/06 02:56:02;;;;;;;7.20;5.20;;;1.60;99.90;;;;;;467983;251;27454;-71
2024/03/06 02:58:03;;;;;;;10.90;6.32;;;1.60;99.90;;;;;;476969;249;27548;-70
2024/03/06 03:00:04;;;;;;;11.02;6.82;;;1.60;99.90;;;;;;468113;251;27469;-70
2024/03/06 03:02:06;;;;;;;8.88;6.60;;;1.60;99.90;;;;;;477010;249;27438;-71
2024/03/06 03:04:07;;;;;;;8.45;5.55;;;1.60;99.90;;;;;;468031;251;27433;-70
2024/03/06 03:06:08;;;;;;;9.30;5.95;;;1.60;99.90;;;;;;476967;249;27572;-71
2024/03/06 03:08:09;;;;;;;11.45;5.85;;;1.60;99.90;;;;;;468087;251;27892;-72
2024/03/06 03:10:11;;;;;;;6.45;5.28;;;1.70;99.90;;;;;;477018;249;27510;-70
2024/03/06 03:12:12;;;;;;;7.03;5.18;;;1.70;99.90;;;;;;468077;251;27465;-71
2024/03/06 03:14:13;;;;;;;6.82;5.40;;;1.80;99.90;;;;;;476952;249;27859;-71
2024/03/06 03:16:14;;;;;;;6.80;5.55;;;1.80;99.90;;;;;;468116;251;27950;-71
2024/03/06 03:18:16;;;;;;;9.38;5.60;;;1.70;99.90;;;;;;476950;249;28010;-72
2024/03/06 03:20:17;;;;;;;8.57;6.37;;;1.70;99.90;;;;;;468098;251;27970;-71
2024/03/06 03:22:18;;;;;;;6.45;5.30;;;1.70;99.90;;;;;;476978;249;27514;-71
2024/03/06 03:24:21;;;;;;;10.90;5.62;;;1.70;99.90;;;;;;468111;251;27490;-70
2024/03/06 03:26:21;;;;;;;5.62;4.90;;;1.60;99.90;;;;;;476971;249;27482;-71
2024/03/06 03:28:22;;;;;;;6.60;4.95;;;1.40;99.90;;;;;;468089;251;27458;-72
2024/03/06 03:30:23;;;;;;;5.78;5.10;;;1.30;99.90;;;;;;476981;249;27526;-71
2024/03/06 03:32:24;;;;;;;7.55;4.93;;;1.40;99.90;;;;;;468077;251;27481;-71
2024/03/06 03:34:26;;;;;;;6.65;5.12;;;1.50;99.90;;;;;;476986;249;27877;-72
2024/03/06 03:36:27;;;;;;;9.70;7.18;;;1.60;99.90;;;;;;468106;251;27421;-71
2024/03/06 03:38:28;;;;;;;12.45;6.90;;;1.60;99.90;;;;;;476971;249;27446;-72
2024/03/06 03:40:30;;;;;;;11.70;7.25;;;1.60;99.90;;;;;;468093;251;28041;-71
2024/03/06 03:42:31;;;;;;;10.95;7.28;;;1.60;99.90;;;;;;477001;249;27923;-71
2024/03/06 03:44:32;;;;;;;11.93;6.20;;;1.70;99.90;;;;;;468158;251;27955;-73
2024/03/06 03:46:33;;;;;;;7.45;5.37;;;1.70;99.90;;;;;;477040;249;27438;-71
2024/03/06 03:48:36;;;;;;;8.45;5.50;;;1.70;99.90;;;;;;468081;251;27504;-70
2024/03/06 03:50:36;;;;;;;11.18;5.93;;;1.70;99.90;;;;;;476925;249;27409;-71
2024/03/06 03:52:41;;;;;;;10.90;5.60;;;1.70;99.90;;;;;;468170;251;27510;-71
2024/03/06 03:54:38;;;;;;;5.85;5.20;;;1.60;99.90;;;;;;476744;249;27498;-71
2024/03/06 03:56:39;;;;;;;6.05;5.07;;;1.70;99.90;;;;;;468152;251;27433;-70
2024/03/06 03:58:41;;;;;;;7.15;6.07;;;1.70;99.90;;;;;;476976;249;27457;-71
2024/03/06 04:00:42;;;;;;;8.07;6.20;;;1.70;99.90;;;;;;468146;251;27613;-73
2024/03/06 04:02:43;;;;;;;8.73;5.43;;;1.80;99.90;;;;;;477033;249;27506;-71
2024/03/06 04:04:44;;;;;;;9.07;6.10;;;1.70;99.90;;;;;;468118;251;27934;-71
2024/03/06 04:06:46;;;;;;;8.00;5.53;;;1.70;99.90;;;;;;476995;249;27941;-71
2024/03/06 04:08:47;;;;;;;10.75;6.00;;;1.60;99.90;;;;;;468066;251;29128;-71
2024/03/06 04:10:48;;;;;;;6.40;5.70;;;1.60;99.90;;;;;;477023;249;27433;-72
2024/03/06 04:12:49;;;;;;;5.80;5.07;;;1.50;99.90;;;;;;468142;251;27464;-71
2024/03/06 04:14:51;;;;;;;5.75;4.85;;;1.60;99.90;;;;;;476995;249;27462;-71
2024/03/06 04:16:52;;;;;;;6.87;5.43;;;1.60;99.90;;;;;;468077;251;27534;-70
2024/03/06 04:18:53;;;;;;;7.82;5.35;;;1.60;99.90;;;;;;476979;249;27438;-71
2024/03/06 04:20:54;;;;;;;8.32;5.80;;;1.50;99.90;;;;;;468129;251;27478;-72
2024/03/06 04:22:56;;;;;;;8.77;5.90;;;1.50;99.90;;;;;;476996;249;27422;-71
2024/03/06 04:24:58;;;;;;;8.07;5.72;;;1.50;99.90;;;;;;468091;251;27537;-71
2024/03/06 04:26:58;;;;;;;7.40;5.70;;;1.50;99.90;;;;;;476913;249;27450;-71
2024/03/06 04:28:59;;;;;;;9.43;6.50;;;1.50;99.90;;;;;;468076;251;27585;-71
2024/03/06 04:31:01;;;;;;;7.35;5.80;;;1.50;99.90;;;;;;476990;249;27438;-71
2024/03/06 04:33:02;;;;;;;7.37;5.82;;;1.40;99.90;;;;;;468077;251;27898;-71
2024/03/06 04:35:03;;;;;;;6.43;5.20;;;1.40;99.90;;;;;;476954;249;28086;-71
2024/03/06 04:37:04;;;;;;;7.25;4.95;;;1.30;99.90;;;;;;468105;251;28045;-72
2024/03/06 04:39:07;;;;;;;8.68;5.43;;;1.30;99.90;;;;;;476979;249;27470;-71
2024/03/06 04:41:07;;;;;;;7.15;5.20;;;1.20;99.90;;;;;;468049;254;27540;-71
2024/03/06 04:43:08;;;;;;;8.95;6.30;;;1.10;99.90;;;;;;476947;249;27587;-71
2024/03/06 04:45:09;;;;;;;7.57;6.03;;;1.10;99.90;;;;;;468107;251;27462;-71
2024/03/06 04:47:11;;;;;;;9.27;6.43;;;1.10;99.90;;;;;;476995;249;27454;-71
2024/03/06 04:49:12;;;;;;;10.65;6.50;;;1.20;99.90;;;;;;468051;251;27501;-71
2024/03/06 04:51:13;;;;;;;9.88;6.90;;;1.30;99.90;;;;;;476980;249;27545;-72
2024/03/06 04:53:14;;;;;;;6.53;5.40;;;1.30;99.90;;;;;;468088;251;27470;-71
2024/03/06 04:55:20;;;;;;;6.90;6.20;;;1.20;99.90;;;;;;477002;249;27442;-71
2024/03/06 04:57:17;;;;;;;10.00;6.37;;;1.20;99.90;;;;;;467755;254;27485;-71
2024/03/06 04:59:18;;;;;;;9.27;6.05;;;1.20;99.90;;;;;;476972;249;27950;-71
2024/03/06 05:01:19;;;;;;;6.78;5.57;;;1.20;99.90;;;;;;468064;251;27950;-70
2024/03/06 05:03:21;;;;;;;11.70;7.50;;;1.20;99.90;;;;;;476922;249;29710;-71
2024/03/06 05:05:22;;;;;;;7.85;5.93;;;1.20;99.90;;;;;;467968;254;27417;-71
2024/03/06 05:07:23;;;;;;;10.40;7.35;;;1.20;99.90;;;;;;476936;249;27459;-71
2024/03/06 05:09:24;;;;;;;11.07;8.18;;;1.20;99.90;;;;;;468037;251;27537;-71
2024/03/06 05:11:26;;;;;;;14.70;8.30;;;1.30;99.90;;;;;;476946;249;27468;-71
2024/03/06 05:13:27;;;;;;;16.65;8.52;;;1.30;99.90;;;;;;468111;251;27854;-73
2024/03/06 05:15:28;;;;;;;13.93;8.80;;;1.30;99.90;;;;;;476980;249;27417;-71
2024/03/06 05:17:29;;;;;;;15.25;8.90;;;1.30;99.90;;;;;;468028;251;27473;-71
2024/03/06 05:19:31;;;;;;;12.35;8.93;;;1.30;99.90;;;;;;476944;249;27402;-71
2024/03/06 05:21:32;;;;;;;21.55;9.95;;;1.40;99.90;;;;;;468101;251;27970;-71
2024/03/06 05:23:34;;;;;;;11.98;8.05;;;1.40;99.90;;;;;;476989;249;27925;-71
2024/03/06 05:25:34;;;;;;;10.63;7.80;;;1.40;99.90;;;;;;468086;251;27529;-70
2024/03/06 05:27:36;;;;;;;12.80;8.95;;;1.40;99.90;;;;;;476905;249;27572;-71
2024/03/06 05:29:37;;;;;;;15.23;10.20;;;1.50;99.90;;;;;;468089;251;27441;-71
2024/03/06 05:31:38;;;;;;;15.00;8.93;;;1.40;99.90;;;;;;476974;249;27419;-71
2024/03/06 05:33:39;;;;;;;14.35;9.07;;;1.40;99.90;;;;;;468119;251;27470;-72
2024/03/06 05:35:41;;;;;;;12.45;9.23;;;1.40;99.90;;;;;;476959;249;27417;-71
2024/03/06 05:37:42;;;;;;;13.68;9.25;;;1.40;99.90;;;;;;468024;251;27482;-71
2024/03/06 05:39:43;;;;;;;14.00;9.80;;;1.40;99.90;;;;;;476970;249;28195;-72
2024/03/06 05:41:44;;;;;;;10.60;8.55;;;1.50;99.90;;;;;;468089;251;28053;-71
2024/03/06 05:43:46;;;;;;;12.80;9.00;;;1.50;99.90;;;;;;476958;249;27925;-71
2024/03/06 05:45:47;;;;;;;10.13;7.45;;;1.50;99.90;;;;;;468037;251;27408;-71
2024/03/06 05:47:49;;;;;;;8.98;6.90;;;1.60;99.90;;;;;;476917;249;27498;-70
2024/03/06 05:49:49;;;;;;;15.52;8.55;;;1.50;99.90;;;;;;468105;251;27461;-72
2024/03/06 05:51:51;;;;;;;11.23;7.75;;;1.40;99.90;;;;;;476975;249;27407;-70
2024/03/06 05:53:52;;;;;;;12.77;9.13;;;1.40;99.90;;;;;;468085;251;27470;-71
2024/03/06 05:55:54;;;;;;;9.98;7.43;;;1.40;99.90;;;;;;476943;249;27454;-71
2024/03/06 05:57:55;;;;;;;11.35;8.50;;;1.40;99.90;;;;;;468050;251;27450;-70
2024/03/06 05:59:56;;;;;;;18.40;10.30;;;1.40;99.90;;;;;;476957;249;27526;-71
2024/03/06 06:01:57;;;;;;;14.57;8.35;;;1.40;99.90;;;;;;468075;251;27866;-70
2024/03/06 06:04:00;;;;;;;14.10;9.48;;;1.30;99.90;;;;;;476812;249;27964;-71
2024/03/06 06:06:00;;;;;;;16.00;9.40;;;1.40;99.90;;;;;;468035;251;27493;-71
2024/03/06 06:08:01;;;;;;;15.48;9.20;;;1.40;99.90;;;;;;476936;249;27391;-71
2024/03/06 06:10:02;;;;;;;18.60;10.10;;;1.50;99.90;;;;;;468094;251;27457;-71
2024/03/06 06:12:03;;;;;;;12.07;8.82;;;1.50;99.90;;;;;;476973;249;27557;-71
2024/03/06 06:14:05;;;;;;;15.43;9.63;;;1.50;99.90;;;;;;468042;251;27465;-71
2024/03/06 06:16:06;;;;;;;14.32;10.38;;;1.50;99.90;;;;;;476993;249;27806;-72
2024/03/06 06:18:07;;;;;;;15.65;10.18;;;1.60;99.90;;;;;;468078;251;27421;-71
2024/03/06 06:20:13;;;;;;;16.77;10.88;;;1.70;99.90;;;;;;476960;249;27918;-71
2024/03/06 06:22:11;;;;;;;18.75;10.65;;;1.70;99.90;;;;;;467726;254;27988;-71
2024/03/06 06:24:11;;;;;;;19.60;10.88;;;1.70;99.90;;;;;;476930;249;27502;-71
2024/03/06 06:26:12;;;;;;;12.30;8.88;;;1.70;99.90;;;;;;468165;251;27457;-72
2024/03/06 06:28:13;;;;;;;14.85;10.07;;;1.70;99.90;;;;;;476959;249;27482;-70
2024/03/06 06:30:15;;;;;;;16.35;10.63;;;1.80;99.90;;;;;;468109;251;27496;-71
2024/03/06 06:32:16;;;;;;;11.18;8.85;;;1.80;99.90;;;;;;477030;249;27567;-72
2024/03/06 06:34:18;;;;;;;13.85;9.13;;;1.80;99.90;;;;;;468150;251;27581;-70
2024/03/06 06:36:19;;;;;;;12.30;9.18;;;1.80;99.90;;;;;;476987;249;27929;-71
2024/03/06 06:38:20;;;;;;;15.75;10.52;;;1.80;99.90;;;;;;468062;251;27876;-70
2024/03/06 06:40:21;;;;;;;14.85;10.02;;;1.80;99.90;;;;;;476999;249;27930;-71
2024/03/06 06:42:22;;;;;;;15.30;9.32;;;1.70;99.90;;;;;;468173;251;27541;-72
2024/03/06 06:44:23;;;;;;;14.68;10.00;;;1.70;99.90;;;;;;477043;249;27504;-70
2024/03/06 06:46:25;;;;;;;14.65;10.02;;;1.80;99.90;;;;;;468150;251;27470;-71
2024/03/06 06:48:26;;;;;;;15.68;10.10;;;1.80;99.90;;;;;;476923;249;27411;-71
2024/03/06 06:50:27;;;;;;;12.15;9.15;;;1.80;99.90;;;;;;468124;251;27530;-71
2024/03/06 06:52:28;;;;;;;16.42;10.45;;;1.90;99.90;;;;;;477019;249;27430;-72
2024/03/06 06:54:30;;;;;;;11.25;7.75;;;2.00;99.90;;;;;;468115;251;27946;-71
2024/03/06 06:56:31;;;;;;;10.25;8.30;;;2.00;99.90;;;;;;476988;249;27989;-71
2024/03/06 06:58:32;;;;;;;12.30;8.07;;;2.10;99.90;;;;;;468042;251;27476;-71
2024/03/06 07:00:34;;;;;;;13.30;9.43;;;2.10;99.90;;;;;;476994;249;27419;-71
2024/03/06 07:02:35;;;;;;;12.23;8.70;;;2.20;99.90;;;;;;468115;251;27453;-71
2024/03/06 07:04:36;;;;;;;11.27;8.75;;;2.20;99.90;;;;;;476938;249;27426;-70
2024/03/06 07:06:37;;;;;;;13.45;8.30;;;2.10;99.90;;;;;;468026;251;27548;-71
2024/03/06 07:08:39;;;;;;;11.70;7.95;;;2.10;99.90;;;;;;476961;249;27793;-72
2024/03/06 07:10:40;;;;;;;11.30;6.62;;;2.10;99.90;;;;;;468103;251;27418;-71
2024/03/06 07:12:41;;;;;;;9.20;6.80;;;2.00;99.90;;;;;;476952;249;28077;-71
2024/03/06 07:14:42;;;;;;;9.25;6.37;;;2.00;99.90;;;;;;468044;251;27889;-71
2024/03/06 07:16:43;;;;;;;9.75;6.37;;;2.10;99.90;;;;;;476943;249;28008;-71
2024/03/06 07:18:46;;;;;;;9.27;5.68;;;2.10;99.90;;;;;;468087;251;27963;-72
2024/03/06 07:20:47;;;;;;;7.40;5.70;;;2.10;99.90;;;;;;476940;249;27444;-71
2024/03/06 07:22:47;;;;;;;9.07;6.60;;;2.10;99.90;;;;;;468035;254;27466;-71
2024/03/06 07:24:48;;;;;;;8.45;6.45;;;2.10;99.90;;;;;;476965;249;27479;-70
2024/03/06 07:26:50;;;;;;;9.55;6.78;;;2.10;99.90;;;;;;468126;251;27426;-71
2024/03/06 07:28:52;;;;;;;9.40;6.62;;;2.10;99.90;;;;;;476975;249;27545;-71
2024/03/06 07:30:52;;;;;;;9.80;7.50;;;2.10;99.90;;;;;;468103;251;27421;-71
2024/03/06 07:32:53;;;;;;;13.38;7.12;;;2.10;99.90;;;;;;476978;249;27450;-71
2024/03/06 07:34:55;;;;;;;10.18;7.95;;;2.20;99.90;;;;;;468125;251;27507;-72
2024/03/06 07:36:56;;;;;;;10.57;8.10;;;2.30;99.90;;;;;;477019;249;27403;-71
2024/03/06 07:38:57;;;;;;;10.30;7.37;;;2.30;99.90;;;;;;468076;251;27973;-70
2024/03/06 07:40:58;;;;;;;11.05;6.40;;;2.40;99.90;;;;;;476981;249;27877;-71
2024/03/06 07:43:00;;;;;;;11.60;7.47;;;2.40;99.90;;;;;;468039;251;29035;-71
2024/03/06 07:45:01;;;;;;;9.90;7.75;;;2.40;99.90;;;;;;477031;249;27510;-72
2024/03/06 07:47:02;;;;;;;10.05;7.55;;;2.40;99.90;;;;;;468109;251;27501;-71
2024/03/06 07:49:04;;;;;;;11.65;7.45;;;2.40;99.90;;;;;;476759;249;27474;-71
2024/03/06 07:51:05;;;;;;;9.52;7.25;;;2.50;99.90;;;;;;468076;251;27543;-70
2024/03/06 07:53:06;;;;;;;11.52;8.45;;;2.60;99.90;;;;;;476990;249;27449;-71
2024/03/06 07:55:07;;;;;;;12.02;7.57;;;2.70;99.90;;;;;;468125;251;27462;-71
2024/03/06 07:57:09;;;;;;;12.37;8.88;;;2.80;99.90;;;;;;476958;249;27489;-70
2024/03/06 07:59:12;;;;;;;11.18;8.38;;;2.90;99.90;;;;;;468047;251;28009;-71
2024/03/06 08:01:12;;;;;;;13.25;9.20;;;3.00;99.90;;;;;;476855;249;28592;-71
2024/03/06 08:03:13;;;;;;;14.45;9.25;;;3.00;99.90;;;;;;468086;251;27965;-71
2024/03/06 08:05:14;;;;;;;17.67;8.93;;;3.00;99.90;;;;;;476973;249;27470;-72
2024/03/06 08:07:15;;;;;;;18.67;10.57;;;3.10;99.90;;;;;;468044;251;27572;-71
2024/03/06 08:09:19;;;;;;;17.17;9.35;;;3.10;99.90;;;;;;476967;249;27505;-71
2024/03/06 08:11:17;;;;;;;15.18;9.10;;;3.20;99.90;;;;;;467863;254;27766;-71
2024/03/06 08:13:21;;;;;;;17.62;10.80;;;3.40;99.90;;;;;;476967;249;27426;-71
2024/03/06 08:15:23;;;;;;;16.10;10.05;;;3.60;99.90;;;;;;468108;251;27423;-71
2024/03/06 08:17:24;;;;;;;25.50;13.05;;;3.70;99.90;;;;;;476937;249;27473;-72
2024/03/06 08:19:26;;;;;;;36.13;14.50;;;3.70;99.90;;;;;;468094;251;28697;-71
2024/03/06 08:21:27;;;;;;;25.62;13.75;;;3.80;99.90;;;;;;476969;249;27870;-71
2024/03/06 08:23:28;;;;;;;17.55;11.80;;;3.80;99.90;;;;;;468099;251;27450;-72
2024/03/06 08:25:32;;;;;;;28.12;13.40;;;3.80;99.90;;;;;;476972;249;27431;-71
2024/03/06 08:27:30;;;;;;;29.67;13.25;;;3.80;99.90;;;;;;467848;254;27534;-72
2024/03/06 08:29:32;;;;;;;29.92;16.50;;;3.90;99.90;;;;;;476993;249;27784;-72
2024/03/06 08:31:33;;;;;;;38.20;13.93;;;3.90;99.90;;;;;;468110;251;27445;-72
2024/03/06 08:33:34;;;;;;;21.48;12.85;;;3.90;99.90;;;;;;476980;249;28040;-72
2024/03/06 08:35:35;;;;;;;16.77;12.85;;;3.90;99.90;;;;;;468056;251;27446;-71
2024/03/06 08:37:37;;;;;;;33.40;13.70;;;3.90;99.90;;;;;;476929;249;27410;-72
2024/03/06 08:39:38;;;;;;;16.95;12.45;;;3.90;99.90;;;;;;468111;251;27533;-72
2024/03/06 08:41:39;;;;;;;16.42;13.40;;;3.90;99.90;;;;;;476985;249;27415;-71
2024/03/06 08:43:40;;;;;;;17.75;12.63;;;4.00;99.90;;;;;;468042;251;27573;-73
2024/03/06 08:45:42;;;;;;;20.33;13.15;;;4.20;99.90;;;;;;476996;249;28101;-71
2024/03/06 08:47:43;;;;;;;17.52;11.88;;;4.30;99.90;;;;;;468074;248;27878;-72
2024/03/06 08:49:44;;;;;;;22.17;14.05;;;4.40;99.90;;;;;;476996;249;27462;-72
2024/03/06 08:51:45;;;;;;;16.23;11.85;;;4.50;99.90;;;;;;468113;251;27465;-71
2024/03/06 08:53:48;;;;;;;17.12;12.48;;;4.50;99.90;;;;;;476981;249;27490;-72
2024/03/06 08:55:49;;;;;;;21.35;13.70;;;4.70;99.90;;;;;;468114;251;27541;-76
2024/03/06 08:57:50;;;;;;;16.35;12.18;;;4.70;99.90;;;;;;476913;249;27863;-74
2024/03/06 08:59:51;;;;;;;19.50;13.15;;;4.60;99.90;;;;;;468084;251;27533;-74
2024/03/06 09:01:52;;;;;;;20.25;13.95;;;4.80;99.90;;;;;;476975;249;27391;-72
2024/03/06 09:03:53;;;;;;;21.27;15.15;;;4.80;99.90;;;;;;468127;251;27436;-72
2024/03/06 09:05:54;;;;;;;17.77;13.55;;;4.90;99.90;;;;;;477021;249;27552;-74
2024/03/06 09:07:57;;;;;;;28.70;16.70;;;4.90;99.90;;;;;;468062;251;27997;-73
2024/03/06 09:09:57;;;;;;;17.20;12.93;;;4.90;99.90;;;;;;476923;249;27946;-72
2024/03/06 09:11:58;;;;;;;18.95;14.45;;;5.00;99.90;;;;;;468154;251;27478;-71
2024/03/06 09:13:59;;;;;;;24.98;16.77;;;5.10;99.90;;;;;;476996;249;27403;-71
2024/03/06 09:16:01;;;;;;;24.83;15.02;;;5.20;99.90;;;;;;468114;251;27462;-72
2024/03/06 09:18:03;;;;;;;19.45;12.68;;;5.10;99.90;;;;;;476935;249;27886;-74
2024/03/06 09:20:12;;;;;;;18.87;14.13;;;5.20;99.90;;;;;;468087;251;27954;-73
2024/03/06 09:22:14;;;;;;;19.23;12.95;;;5.30;99.90;;;;;;476966;249;27395;-71
2024/03/06 09:24:15;;;;;;;17.48;12.60;;;5.30;99.90;;;;;;468074;253;27545;-74
2024/03/06 09:26:16;;;;;;;17.95;13.50;;;5.50;99.90;;;;;;477004;249;27434;-75
2024/03/06 09:28:17;;;;;;;14.32;11.25;;;5.50;99.90;;;;;;468091;251;27895;-74
2024/03/06 09:30:19;;;;;;;16.05;11.40;;;5.60;99.90;;;;;;477010;249;27953;-71
2024/03/06 09:32:22;;;;;;;19.42;13.38;;;5.80;99.90;;;;;;468129;251;27427;-74
2024/03/06 09:34:22;;;;;;;16.83;12.93;;;5.80;99.90;;;;;;476880;249;27450;-71
2024/03/06 09:36:23;;;;;;;18.30;12.83;;;5.80;99.90;;;;;;468100;251;27492;-75
2024/03/06 09:38:24;;;;;;;17.27;13.13;;;5.80;99.90;;;;;;476963;249;28830;-73
2024/03/06 09:40:25;;;;;;;18.00;13.10;;;5.70;99.90;;;;;;468094;253;29343;-73
2024/03/06 09:42:26;;;;;;;14.60;12.15;;;5.80;99.90;;;;;;476946;249;27402;-71
2024/03/06 09:44:28;;;;;;;17.60;12.85;;;5.90;99.90;;;;;;468133;251;27442;-73
2024/03/06 09:46:29;;;;;;;17.48;11.27;;;6.00;99.90;;;;;;477021;249;27466;-73
2024/03/06 09:48:30;;;;;;;18.77;12.27;;;6.00;99.90;;;;;;468079;251;27832;-73
2024/03/06 09:50:31;;;;;;;17.67;13.43;;;6.20;99.90;;;;;;476982;249;28081;-73
2024/03/06 09:52:33;;;;;;;14.27;12.03;;;6.30;99.90;;;;;;468133;251;29487;-73
2024/03/06 09:54:34;;;;;;;17.37;12.77;;;6.30;99.90;;;;;;476919;249;28833;-74
2024/03/06 09:56:35;;;;;;;15.63;12.00;;;6.50;99.90;;;;;;468125;251;27963;-74
2024/03/06 09:58:36;;;;;;;14.20;10.73;;;6.60;99.90;;;;;;476946;249;27873;-73
2024/03/06 10:00:38;;;;;;;14.77;11.30;;;6.70;99.90;;;;;;468087;251;28813;-73
2024/03/06 10:02:39;;;;;;;13.55;11.60;;;6.70;99.90;;;;;;477013;249;27763;-74
2024/03/06 10:04:40;;;;;;;16.93;12.47;;;6.70;99.90;;;;;;468125;253;27456;-73
2024/03/06 10:06:42;;;;;;;13.40;10.80;;;6.70;99.90;;;;;;476986;249;28438;-73
2024/03/06 10:08:46;;;;;;;16.30;11.33;;;6.70;99.90;;;;;;468042;251;28330;-73
2024/03/06 10:10:45;;;;;;;13.10;9.90;;;6.70;99.90;;;;;;468335;254;28028;-73
2024/03/06 10:12:45;;;;;;;12.30;9.97;;;6.70;99.90;;;;;;476951;249;27968;-74
2024/03/06 10:14:46;;;;;;;11.60;9.50;;;6.70;99.90;;;;;;468123;251;27766;-73
2024/03/06 10:16:48;;;;;;;12.63;8.80;;;6.70;99.90;;;;;;477004;249;27821;-73
2024/03/06 10:18:49;;;;;;;12.00;8.60;;;6.70;99.90;;;;;;468125;251;27949;-73
2024/03/06 10:20:52;;;;;;;12.00;9.13;;;6.70;99.90;;;;;;477043;249;27779;-73
2024/03/06 10:22:51;;;;;;;8.80;7.50;;;6.70;99.90;;;;;;468098;251;27995;-74
2024/03/06 10:24:53;;;;;;;9.10;7.50;;;6.60;99.90;;;;;;476978;249;27885;-73
2024/03/06 10:26:54;;;;;;;11.50;7.50;;;6.60;99.90;;;;;;468104;253;28019;-73
2024/03/06 10:28:55;;;;;;;8.50;7.20;;;6.60;99.90;;;;;;476998;249;28420;-73
2024/03/06 10:30:56;;;;;;;8.13;6.90;;;6.60;99.90;;;;;;468159;251;28381;-73
2024/03/06 10:32:58;;;;;;;11.77;6.60;;;6.60;99.90;;;;;;477031;249;29126;-73